Time;durP1;ratioP1;P1;durP2;ratioP2;P2;SDS_P1;SDS_P2;PMS_P1;PMS_P2;Temp;Humidity;BMP_temperature;BMP_pressure;BME280_temperature;BME280_humidity;BME280_pressure;Samples;Min_cycle;Max_cycle;Signal;HPM_P1;HPM_P2
2022/06/29 00:12:17;;;;;;;3.72;2.13;;;;;;;;;;5093006;27;20488;-90
2022/06/29 00:14:45;;;;;;;3.42;2.03;;;;;;;;;;5092455;28;20036;-89
2022/06/29 00:17:18;;;;;;;4.45;2.13;;;;;;;;;;5074145;28;20040;-90
2022/06/29 00:19:45;;;;;;;3.17;2.05;;;;;;;;;;5074175;28;20481;-89
2022/06/29 00:22:17;;;;;;;6.35;2.45;;;;;;;;;;5054744;28;20124;-86
2022/06/29 00:24:45;;;;;;;3.28;1.80;;;;;;;;;;5069994;28;20039;-86
2022/06/29 00:27:14;;;;;;;4.50;2.03;;;;;;;;;;5073357;28;20036;-86
2022/06/29 00:29:42;;;;;;;3.70;1.88;;;;;;;;;;5064763;28;20041;-86
2022/06/29 00:32:14;;;;;;;4.70;1.83;;;;;;;;;;5072651;28;20068;-86
2022/06/29 00:34:47;;;;;;;3.97;2.35;;;;;;;;;;5079961;28;20090;-86
2022/06/29 00:37:16;;;;;;;4.05;1.90;;;;;;;;;;5091079;28;20488;-86
2022/06/29 00:39:43;;;;;;;3.15;2.08;;;;;;;;;;5057433;28;20045;-86
2022/06/29 00:42:11;;;;;;;3.58;1.85;;;;;;;;;;5052954;28;20047;-86
2022/06/29 00:44:45;;;;;;;2.90;1.90;;;;;;;;;;5036508;28;20049;-92
2022/06/29 00:47:11;;;;;;;3.30;2.13;;;;;;;;;;5054797;28;20044;-94
2022/06/29 00:49:39;;;;;;;6.15;1.98;;;;;;;;;;5039122;28;20045;-93
2022/06/29 00:57:08;;;;;;;2.92;1.80;;;;;;;;;;5088373;28;20047;-96
2022/06/29 01:00:44;;;;;;;3.58;2.00;;;;;;;;;;5051174;28;20045;-96
2022/06/29 01:03:36;;;;;;;6.10;1.88;;;;;;;;;;5048643;28;20069;-85
2022/06/29 01:06:04;;;;;;;2.78;1.75;;;;;;;;;;5048408;28;20080;-85
2022/06/29 01:08:58;;;;;;;3.05;2.00;;;;;;;;;;5049364;28;20048;-93
2022/06/29 01:11:29;;;;;;;5.30;2.20;;;;;;;;;;5017510;28;20045;-92
2022/06/29 01:13:58;;;;;;;3.58;1.77;;;;;;;;;;5050064;28;20041;-93
2022/06/29 01:16:31;;;;;;;3.30;2.20;;;;;;;;;;5034885;28;20410;-93
2022/06/29 01:19:29;;;;;;;3.22;1.80;;;;;;;;;;5032000;28;20087;-85
2022/06/29 01:22:16;;;;;;;3.00;1.92;;;;;;;;;;5027615;28;20124;-85
2022/06/29 01:24:50;;;;;;;4.05;2.45;;;;;;;;;;5002146;28;20045;-85
2022/06/29 01:27:43;;;;;;;3.78;2.08;;;;;;;;;;5034616;28;20045;-85
2022/06/29 01:30:12;;;;;;;4.10;1.80;;;;;;;;;;5018508;28;20045;-85
2022/06/29 01:33:03;;;;;;;5.53;1.80;;;;;;;;;;5035195;28;20528;-87
2022/06/29 01:35:31;;;;;;;2.90;1.80;;;;;;;;;;5035077;28;20111;-87
2022/06/29 01:37:59;;;;;;;3.55;1.90;;;;;;;;;;5064133;28;20143;-87
2022/06/29 01:40:27;;;;;;;4.60;1.85;;;;;;;;;;5059395;28;20036;-87
2022/06/29 01:42:59;;;;;;;3.15;2.05;;;;;;;;;;5067153;28;20047;-88
2022/06/29 01:45:27;;;;;;;5.13;2.13;;;;;;;;;;5050724;28;20048;-88
2022/06/29 01:47:56;;;;;;;3.67;2.00;;;;;;;;;;5065809;28;20033;-89
2022/06/29 01:50:23;;;;;;;2.78;1.80;;;;;;;;;;5058168;28;20045;-89
2022/06/29 01:52:55;;;;;;;3.20;1.77;;;;;;;;;;5074018;28;20044;-88
2022/06/29 01:55:49;;;;;;;4.40;1.80;;;;;;;;;;5076741;28;20048;-88
2022/06/29 01:58:18;;;;;;;6.55;2.72;;;;;;;;;;5075416;28;20040;-88
2022/06/29 02:00:45;;;;;;;3.30;1.80;;;;;;;;;;5058764;28;20086;-88
2022/06/29 02:03:13;;;;;;;3.60;1.90;;;;;;;;;;5061151;28;20059;-89
2022/06/29 02:05:41;;;;;;;4.07;2.00;;;;;;;;;;5055110;28;20480;-89
2022/06/29 02:08:09;;;;;;;3.17;1.83;;;;;;;;;;5067880;28;20064;-89
2022/06/29 02:10:41;;;;;;;3.50;1.80;;;;;;;;;;5048022;28;20043;-88
2022/06/29 02:13:09;;;;;;;3.30;1.98;;;;;;;;;;5061201;28;20105;-88
2022/06/29 02:16:02;;;;;;;3.05;1.90;;;;;;;;;;5065376;28;20041;-89
2022/06/29 02:18:35;;;;;;;5.57;1.98;;;;;;;;;;5049618;28;20401;-88
2022/06/29 02:21:05;;;;;;;4.78;2.10;;;;;;;;;;5044653;28;20052;-88
2022/06/29 02:23:31;;;;;;;3.60;1.90;;;;;;;;;;5048376;28;20036;-87
2022/06/29 02:25:59;;;;;;;2.50;1.52;;;;;;;;;;5062633;28;20052;-88
2022/06/29 02:28:31;;;;;;;3.72;1.85;;;;;;;;;;5046326;28;20519;-88
2022/06/29 02:37:02;;;;;;;5.72;1.90;;;;;;;;;;5050185;28;20134;-89
2022/06/29 02:39:53;;;;;;;2.90;1.88;;;;;;;;;;5066529;28;20036;-89
2022/06/29 02:42:22;;;;;;;4.03;2.05;;;;;;;;;;5034565;28;20037;-89
2022/06/29 02:45:19;;;;;;;4.47;2.00;;;;;;;;;;5060344;28;20037;-89
2022/06/29 02:47:57;;;;;;;2.83;1.83;;;;;;;;;;5044460;28;20128;-88
2022/06/29 02:50:25;;;;;;;3.92;1.80;;;;;;;;;;5044115;28;20041;-88
2022/06/29 02:52:57;;;;;;;4.15;2.00;;;;;;;;;;5073180;28;20040;-85
2022/06/29 02:55:49;;;;;;;3.80;2.00;;;;;;;;;;5075061;28;20082;-85
2022/06/29 02:58:17;;;;;;;5.20;1.73;;;;;;;;;;5074895;28;20056;-86
2022/06/29 03:00:45;;;;;;;4.32;1.67;;;;;;;;;;5057354;28;20033;-85
2022/06/29 03:03:56;;;;;;;2.85;1.70;;;;;;;;;;5037079;28;20056;-85
2022/06/29 03:06:30;;;;;;;3.65;1.83;;;;;;;;;;5021059;28;20045;-85
2022/06/29 03:08:57;;;;;;;3.78;1.70;;;;;;;;;;5037179;28;20056;-85
2022/06/29 03:11:25;;;;;;;5.18;1.85;;;;;;;;;;5054925;28;20040;-89
2022/06/29 03:13:53;;;;;;;5.35;1.73;;;;;;;;;;5051247;28;20056;-89
2022/06/29 03:16:25;;;;;;;3.47;2.00;;;;;;;;;;5058728;28;20044;-89
2022/06/29 03:18:53;;;;;;;3.90;2.28;;;;;;;;;;5057780;28;20131;-89
2022/06/29 03:21:21;;;;;;;4.50;2.30;;;;;;;;;;5075326;28;20051;-88
2022/06/29 03:23:49;;;;;;;3.80;1.70;;;;;;;;;;5074826;28;20044;-88
2022/06/29 03:26:18;;;;;;;3.30;1.75;;;;;;;;;;5063861;28;20441;-88
2022/06/29 03:28:45;;;;;;;3.80;1.70;;;;;;;;;;5053431;28;20050;-88
2022/06/29 03:31:18;;;;;;;3.35;1.60;;;;;;;;;;5037481;28;20488;-87
2022/06/29 03:33:46;;;;;;;3.92;1.90;;;;;;;;;;5064262;28;20124;-87
2022/06/29 03:36:13;;;;;;;3.20;2.45;;;;;;;;;;5042345;28;20052;-88
2022/06/29 03:39:06;;;;;;;4.03;2.08;;;;;;;;;;5059000;28;20047;-88
2022/06/29 03:41:57;;;;;;;3.70;2.10;;;;;;;;;;5030896;28;20408;-88
2022/06/29 03:44:50;;;;;;;4.65;1.70;;;;;;;;;;5054568;28;20064;-89
2022/06/29 03:47:17;;;;;;;3.13;1.52;;;;;;;;;;5061633;28;20524;-94
2022/06/29 03:49:45;;;;;;;3.08;1.80;;;;;;;;;;5021861;28;20139;-94
2022/06/29 03:52:37;;;;;;;3.80;1.80;;;;;;;;;;5041324;28;20033;-93
2022/06/29 03:55:10;;;;;;;4.22;2.10;;;;;;;;;;5021680;28;20059;-92
2022/06/29 03:57:37;;;;;;;5.60;2.30;;;;;;;;;;5037761;28;20467;-93
2022/06/29 04:00:06;;;;;;;3.47;1.85;;;;;;;;;;5004839;28;20049;-92
2022/06/29 04:02:40;;;;;;;3.45;1.70;;;;;;;;;;5041087;28;20509;-88
2022/06/29 04:05:08;;;;;;;3.10;1.58;;;;;;;;;;5074240;28;20052;-88
2022/06/29 04:07:36;;;;;;;3.65;1.77;;;;;;;;;;5024024;28;20049;-88
2022/06/29 04:10:04;;;;;;;2.92;1.42;;;;;;;;;;5036631;28;20053;-88
2022/06/29 04:12:36;;;;;;;4.93;1.70;;;;;;;;;;5044746;28;20063;-87
2022/06/29 04:15:05;;;;;;;3.95;1.45;;;;;;;;;;5060829;28;20056;-88
2022/06/29 04:17:39;;;;;;;4.28;1.70;;;;;;;;;;5059692;28;20045;-87
2022/06/29 04:20:08;;;;;;;5.75;1.77;;;;;;;;;;5042540;28;20049;-87
2022/06/29 04:22:35;;;;;;;3.80;1.75;;;;;;;;;;5053939;28;20063;-88
2022/06/29 04:25:05;;;;;;;3.15;1.50;;;;;;;;;;5066988;28;20512;-89
2022/06/29 04:27:32;;;;;;;3.33;1.30;;;;;;;;;;5047300;28;20094;-89
2022/06/29 04:30:06;;;;;;;2.78;1.30;;;;;;;;;;5036868;28;20059;-89
2022/06/29 04:32:39;;;;;;;2.78;1.60;;;;;;;;;;5063132;28;20116;-89
2022/06/29 04:35:07;;;;;;;3.70;1.50;;;;;;;;;;5033005;28;20044;-89
2022/06/29 04:37:35;;;;;;;2.80;1.60;;;;;;;;;;5047523;28;20106;-89
2022/06/29 04:40:09;;;;;;;3.20;1.60;;;;;;;;;;5056386;28;20050;-89
2022/06/29 04:42:37;;;;;;;2.60;1.33;;;;;;;;;;5025895;28;20045;-87
2022/06/29 04:45:06;;;;;;;2.80;1.55;;;;;;;;;;5059340;28;20045;-87
2022/06/29 04:47:59;;;;;;;2.90;1.50;;;;;;;;;;5061665;28;20025;-87
2022/06/29 04:50:28;;;;;;;5.60;1.40;;;;;;;;;;5049013;28;20531;-88
2022/06/29 04:52:56;;;;;;;5.70;1.60;;;;;;;;;;5036108;28;20135;-86
2022/06/29 04:55:25;;;;;;;2.40;1.30;;;;;;;;;;5053582;28;20056;-86
2022/06/29 04:58:17;;;;;;;3.35;1.50;;;;;;;;;;5033587;28;20488;-86
2022/06/29 05:00:45;;;;;;;2.28;1.33;;;;;;;;;;5077506;28;20141;-87
2022/06/29 05:03:13;;;;;;;2.53;1.27;;;;;;;;;;5077140;28;20041;-86
2022/06/29 05:06:05;;;;;;;3.25;1.30;;;;;;;;;;5059737;28;20217;-89
2022/06/29 05:09:23;;;;;;;3.63;1.48;;;;;;;;;;5053704;28;20056;-90
2022/06/29 05:11:51;;;;;;;2.60;1.23;;;;;;;;;;5050502;28;20134;-89
2022/06/29 05:14:19;;;;;;;4.53;1.45;;;;;;;;;;5056843;28;20108;-89
2022/06/29 05:16:47;;;;;;;3.50;1.40;;;;;;;;;;5051881;28;20124;-89
2022/06/29 05:19:19;;;;;;;4.72;1.75;;;;;;;;;;5074331;28;20040;-89
2022/06/29 05:24:42;;;;;;;1.98;1.15;;;;;;;;;;5049015;28;20045;-89
2022/06/29 05:27:09;;;;;;;3.80;1.30;;;;;;;;;;5059250;28;20127;-88
2022/06/29 05:30:02;;;;;;;3.03;1.20;;;;;;;;;;5069435;28;20036;-88
2022/06/29 05:32:53;;;;;;;4.22;1.50;;;;;;;;;;5063199;28;20583;-88
2022/06/29 05:35:21;;;;;;;3.95;1.85;;;;;;;;;;5043425;28;20037;-89
2022/06/29 05:38:13;;;;;;;4.07;1.58;;;;;;;;;;5031540;28;20504;-88
2022/06/29 05:40:43;;;;;;;2.40;1.70;;;;;;;;;;5077190;28;20071;-89
2022/06/29 05:43:11;;;;;;;2.90;1.63;;;;;;;;;;5039520;28;20401;-89
2022/06/29 05:45:39;;;;;;;3.38;1.38;;;;;;;;;;5057294;28;20132;-89
2022/06/29 05:48:08;;;;;;;2.97;1.20;;;;;;;;;;5036767;28;20087;-89
2022/06/29 05:50:35;;;;;;;4.40;1.17;;;;;;;;;;5040872;28;20569;-88
2022/06/29 05:53:03;;;;;;;4.00;1.30;;;;;;;;;;5050111;28;20033;-89
2022/06/29 05:55:31;;;;;;;2.50;1.23;;;;;;;;;;5056690;28;20037;-90
2022/06/29 05:58:03;;;;;;;4.93;1.42;;;;;;;;;;5071756;28;20402;-89
2022/06/29 06:00:31;;;;;;;4.13;1.55;;;;;;;;;;5070728;28;20055;-90
2022/06/29 06:02:59;;;;;;;3.30;1.60;;;;;;;;;;5037341;28;20124;-89
2022/06/29 06:05:27;;;;;;;5.05;1.00;;;;;;;;;;5069810;28;20048;-89
2022/06/29 06:07:55;;;;;;;2.63;1.17;;;;;;;;;;5049852;28;20095;-90
2022/06/29 06:10:29;;;;;;;3.00;1.38;;;;;;;;;;5059621;28;20506;-89
2022/06/29 06:12:57;;;;;;;2.45;1.13;;;;;;;;;;5044932;28;20036;-90
2022/06/29 06:15:25;;;;;;;2.45;1.00;;;;;;;;;;5064517;28;20044;-91
2022/06/29 06:17:54;;;;;;;4.82;1.38;;;;;;;;;;5063605;28;20571;-90
2022/06/29 06:20:21;;;;;;;5.40;1.10;;;;;;;;;;5030747;28;20128;-90
2022/06/29 06:22:49;;;;;;;2.10;1.00;;;;;;;;;;5029342;28;20040;-90
2022/06/29 06:25:44;;;;;;;2.33;1.15;;;;;;;;;;5050513;28;20152;-91
2022/06/29 06:28:12;;;;;;;3.42;1.10;;;;;;;;;;5049173;28;20469;-90
2022/06/29 06:30:39;;;;;;;2.42;1.15;;;;;;;;;;5032334;28;20164;-90
2022/06/29 06:33:07;;;;;;;2.80;1.30;;;;;;;;;;5038907;28;20073;-89
2022/06/29 06:35:35;;;;;;;3.05;1.15;;;;;;;;;;5043036;28;20523;-90
2022/06/29 06:38:04;;;;;;;1.25;0.90;;;;;;;;;;5043645;28;20049;-90
2022/06/29 06:43:41;;;;;;;3.05;1.08;;;;;;;;;;5063942;28;20978;-91
2022/06/29 06:46:09;;;;;;;2.65;1.20;;;;;;;;;;5057146;28;20051;-91
2022/06/29 06:48:43;;;;;;;2.05;1.13;;;;;;;;;;5045618;28;20044;-92
2022/06/29 06:51:12;;;;;;;2.78;1.10;;;;;;;;;;5037180;28;20114;-91
2022/06/29 06:53:39;;;;;;;2.78;1.20;;;;;;;;;;5037491;28;20098;-91
2022/06/29 06:56:07;;;;;;;2.30;1.33;;;;;;;;;;5033222;28;20831;-90
2022/06/29 06:58:36;;;;;;;2.15;1.08;;;;;;;;;;5034419;28;20053;-91
2022/06/29 07:01:11;;;;;;;6.53;1.65;;;;;;;;;;5063882;28;20123;-91
2022/06/29 07:04:05;;;;;;;4.13;1.30;;;;;;;;;;5052843;28;20911;-90
2022/06/29 07:06:33;;;;;;;2.70;1.10;;;;;;;;;;5045857;28;20044;-91
2022/06/29 07:09:01;;;;;;;6.50;1.30;;;;;;;;;;5031349;28;20056;-91
2022/06/29 07:11:29;;;;;;;2.97;1.23;;;;;;;;;;5042101;28;20063;-91
2022/06/29 07:14:01;;;;;;;3.95;1.60;;;;;;;;;;5060031;28;20045;-91
2022/06/29 07:16:29;;;;;;;3.05;1.40;;;;;;;;;;5041285;28;20041;-91
2022/06/29 07:18:57;;;;;;;6.68;1.40;;;;;;;;;;5042483;28;20082;-91
2022/06/29 07:21:25;;;;;;;2.65;1.15;;;;;;;;;;5065072;28;20476;-92
2022/06/29 07:23:58;;;;;;;1.85;1.00;;;;;;;;;;5046837;28;20055;-91
2022/06/29 07:26:49;;;;;;;;;;;;;;;;;;5062261;28;20051;-91
2022/06/29 07:29:17;;;;;;;3.33;2.08;;;;;;;;;;5033802;28;19931;-91
2022/06/29 07:31:46;;;;;;;3.50;1.50;;;;;;;;;;5050668;28;20040;-90
2022/06/29 07:34:25;;;;;;;2.75;1.30;;;;;;;;;;5033751;28;20036;-91
2022/06/29 07:36:58;;;;;;;2.28;1.30;;;;;;;;;;5058306;28;20068;-92
2022/06/29 07:39:26;;;;;;;4.50;1.20;;;;;;;;;;5040074;28;20045;-91
2022/06/29 07:42:02;;;;;;;3.13;1.20;;;;;;;;;;5043985;28;20052;-91
2022/06/29 07:44:35;;;;;;;2.40;1.38;;;;;;;;;;5061633;28;20055;-91
2022/06/29 07:47:07;;;;;;;2.55;1.42;;;;;;;;;;5056229;28;20052;-91
2022/06/29 07:49:35;;;;;;;4.45;1.50;;;;;;;;;;5042182;28;20040;-91
2022/06/29 07:52:03;;;;;;;4.20;1.60;;;;;;;;;;5062375;28;20116;-91
2022/06/29 07:54:36;;;;;;;2.60;1.40;;;;;;;;;;5060192;28;20044;-91
2022/06/29 07:57:04;;;;;;;5.50;1.30;;;;;;;;;;5060528;28;20107;-90
2022/06/29 07:59:46;;;;;;;3.80;1.40;;;;;;;;;;5043505;28;20048;-91
2022/06/29 08:02:13;;;;;;;2.70;1.50;;;;;;;;;;5038802;28;20623;-91
2022/06/29 08:04:41;;;;;;;3.30;1.30;;;;;;;;;;5043220;28;20136;-90
2022/06/29 08:07:34;;;;;;;3.35;1.50;;;;;;;;;;5058443;28;20744;-90
2022/06/29 08:10:03;;;;;;;3.70;1.80;;;;;;;;;;5029620;28;20045;-91
2022/06/29 08:12:31;;;;;;;2.15;1.30;;;;;;;;;;5044821;28;20127;-91
2022/06/29 08:14:59;;;;;;;2.03;1.17;;;;;;;;;;5061228;28;20052;-91
2022/06/29 08:17:27;;;;;;;4.20;1.50;;;;;;;;;;5060201;28;20044;-91
2022/06/29 08:20:06;;;;;;;3.20;1.40;;;;;;;;;;5029120;28;20040;-91
2022/06/29 08:22:33;;;;;;;2.25;1.42;;;;;;;;;;5041224;28;20659;-90
2022/06/29 08:25:06;;;;;;;4.13;1.67;;;;;;;;;;5062309;28;20082;-91
2022/06/29 08:27:33;;;;;;;4.13;1.50;;;;;;;;;;5059089;28;20167;-92
2022/06/29 08:30:13;;;;;;;6.07;1.55;;;;;;;;;;5044086;28;20090;-91
2022/06/29 08:33:05;;;;;;;2.75;1.45;;;;;;;;;;5057967;28;20055;-90
2022/06/29 08:35:34;;;;;;;2.28;1.20;;;;;;;;;;5055834;28;20044;-92
2022/06/29 08:38:08;;;;;;;3.05;1.52;;;;;;;;;;5069094;28;20033;-91
2022/06/29 08:40:47;;;;;;;2.80;1.45;;;;;;;;;;5064893;28;20040;-91
2022/06/29 08:43:18;;;;;;;5.45;1.45;;;;;;;;;;5054334;28;20045;-91
2022/06/29 08:45:47;;;;;;;4.05;1.50;;;;;;;;;;5050025;28;20033;-91
2022/06/29 08:48:16;;;;;;;4.95;1.58;;;;;;;;;;5034942;28;20047;-91
2022/06/29 08:50:51;;;;;;;4.07;1.65;;;;;;;;;;5065683;28;20115;-91
2022/06/29 08:53:21;;;;;;;6.85;1.80;;;;;;;;;;5025400;28;20644;-91
2022/06/29 08:55:51;;;;;;;4.28;1.50;;;;;;;;;;5050735;28;20037;-91
2022/06/29 08:58:46;;;;;;;3.08;1.50;;;;;;;;;;5049148;28;20055;-91
2022/06/29 09:01:13;;;;;;;4.07;1.60;;;;;;;;;;5066256;28;20045;-92
2022/06/29 09:03:42;;;;;;;3.80;1.42;;;;;;;;;;5026808;28;20040;-91
2022/06/29 09:06:09;;;;;;;3.25;1.60;;;;;;;;;;5066043;28;20048;-90
2022/06/29 09:08:41;;;;;;;4.20;1.60;;;;;;;;;;5061196;28;20055;-92
2022/06/29 09:11:34;;;;;;;9.30;1.95;;;;;;;;;;5061587;28;20048;-91
2022/06/29 09:14:27;;;;;;;5.53;1.52;;;;;;;;;;5063446;28;20131;-92
2022/06/29 09:16:59;;;;;;;3.10;1.50;;;;;;;;;;5041261;28;20468;-91
2022/06/29 09:19:34;;;;;;;5.60;1.67;;;;;;;;;;5059206;28;20044;-92
2022/06/29 09:22:02;;;;;;;3.72;1.95;;;;;;;;;;5035919;28;20046;-92
2022/06/29 09:24:32;;;;;;;4.15;1.90;;;;;;;;;;5050368;28;20045;-92
2022/06/29 09:27:25;;;;;;;3.72;1.60;;;;;;;;;;5066358;28;20044;-91
2022/06/29 09:30:38;;;;;;;5.43;1.42;;;;;;;;;;5035938;28;20040;-93
2022/06/29 09:33:07;;;;;;;4.00;1.42;;;;;;;;;;5029804;28;20041;-92
2022/06/29 09:36:14;;;;;;;3.50;1.50;;;;;;;;;;5046191;28;20037;-92
2022/06/29 09:38:41;;;;;;;3.38;1.40;;;;;;;;;;5060244;28;20048;-92
2022/06/29 09:41:16;;;;;;;3.33;1.63;;;;;;;;;;5045213;28;20581;-92
2022/06/29 09:44:09;;;;;;;3.47;1.67;;;;;;;;;;5063069;28;20118;-93
2022/06/29 09:49:35;;;;;;;3.05;1.45;;;;;;;;;;5046386;28;20049;-91
2022/06/29 09:52:06;;;;;;;4.65;1.50;;;;;;;;;;5062519;28;20128;-92
2022/06/29 09:55:00;;;;;;;5.15;1.60;;;;;;;;;;5067256;28;20032;-92
2022/06/29 09:57:55;;;;;;;2.88;1.48;;;;;;;;;;5061770;28;20036;-91
2022/06/29 10:03:15;;;;;;;2.40;1.42;;;;;;;;;;5062067;28;20055;-92
2022/06/29 10:06:04;;;;;;;2.45;1.35;;;;;;;;;;5049164;28;20052;-92
2022/06/29 10:08:32;;;;;;;2.38;1.30;;;;;;;;;;5064113;28;20415;-92
2022/06/29 10:15:30;;;;;;;4.47;1.30;;;;;;;;;;5046615;28;20036;-93
2022/06/29 10:18:19;;;;;;;2.42;1.38;;;;;;;;;;5053147;28;20045;-92
2022/06/29 10:20:48;;;;;;;4.00;1.30;;;;;;;;;;5045945;28;20080;-93
2022/06/29 10:23:48;;;;;;;2.58;1.20;;;;;;;;;;5046292;28;20037;-92
2022/06/29 10:26:28;;;;;;;3.80;1.20;;;;;;;;;;5048414;28;20037;-92
2022/06/29 10:29:16;;;;;;;5.43;1.38;;;;;;;;;;5044545;28;20064;-92
2022/06/29 10:31:50;;;;;;;4.63;1.60;;;;;;;;;;5020925;28;20045;-92
2022/06/29 10:34:33;;;;;;;3.10;1.48;;;;;;;;;;5048396;28;20112;-92
2022/06/29 10:37:09;;;;;;;2.75;1.33;;;;;;;;;;5046854;28;20416;-92
2022/06/29 10:39:42;;;;;;;2.75;1.38;;;;;;;;;;5036023;28;20120;-92
2022/06/29 10:45:54;;;;;;;2.55;1.30;;;;;;;;;;5064769;28;20086;-92
2022/06/29 10:48:23;;;;;;;2.83;1.40;;;;;;;;;;5034432;28;20095;-92
2022/06/29 10:50:56;;;;;;;4.00;1.38;;;;;;;;;;5029325;28;20041;-92
2022/06/29 10:53:23;;;;;;;3.63;1.40;;;;;;;;;;5049547;28;20033;-92
2022/06/29 10:55:54;;;;;;;3.45;1.60;;;;;;;;;;5042251;28;20392;-92
2022/06/29 10:58:23;;;;;;;2.83;1.73;;;;;;;;;;5045642;28;20048;-93
2022/06/29 11:00:53;;;;;;;2.40;1.40;;;;;;;;;;5060747;28;20127;-91
2022/06/29 11:03:26;;;;;;;3.80;1.58;;;;;;;;;;5048179;28;20128;-92
2022/06/29 11:17:39;;;;;;;2.75;1.33;;;;;;;;;;5048401;28;20044;-93
2022/06/29 11:19:55;;;;;;;3.83;1.65;;;;;;;;;;5047568;28;20044;-91
2022/06/29 11:22:23;;;;;;;3.05;1.40;;;;;;;;;;5041588;28;20048;-92
2022/06/29 11:25:21;;;;;;;2.30;1.25;;;;;;;;;;5056427;28;20489;-92
2022/06/29 11:27:49;;;;;;;4.03;1.45;;;;;;;;;;5048530;28;20127;-91
2022/06/29 11:30:22;;;;;;;6.95;1.60;;;;;;;;;;5043661;28;20057;-93
2022/06/29 11:32:50;;;;;;;2.25;1.25;;;;;;;;;;5052921;28;20538;-92
2022/06/29 11:35:21;;;;;;;2.78;1.25;;;;;;;;;;5045630;28;20135;-92
2022/06/29 11:38:01;;;;;;;2.20;1.30;;;;;;;;;;5030250;28;20044;-91
2022/06/29 11:40:35;;;;;;;2.95;1.50;;;;;;;;;;5047462;28;20906;-92
2022/06/29 11:43:07;;;;;;;4.40;1.40;;;;;;;;;;5062570;28;20912;-92
2022/06/29 11:45:45;;;;;;;1.90;1.17;;;;;;;;;;5061147;28;20036;-92
2022/06/29 11:48:29;;;;;;;3.30;1.30;;;;;;;;;;5051570;28;20036;-92
2022/06/29 11:50:57;;;;;;;5.13;1.40;;;;;;;;;;5054623;28;20055;-92
2022/06/29 11:53:43;;;;;;;3.08;1.40;;;;;;;;;;5044837;28;20834;-93
2022/06/29 11:56:14;;;;;;;5.88;1.30;;;;;;;;;;5048712;28;20048;-92
2022/06/29 11:58:44;;;;;;;3.00;1.48;;;;;;;;;;5043963;28;20956;-92
2022/06/29 12:01:18;;;;;;;4.88;1.23;;;;;;;;;;5051153;28;20041;-91
2022/06/29 12:03:49;;;;;;;5.10;1.40;;;;;;;;;;5058374;28;20033;-91
2022/06/29 12:06:18;;;;;;;3.17;1.40;;;;;;;;;;5040721;28;20741;-91
2022/06/29 12:09:11;;;;;;;3.53;1.42;;;;;;;;;;5056787;28;20052;-92
2022/06/29 12:12:09;;;;;;;1.90;1.10;;;;;;;;;;5058802;28;20068;-93
2022/06/29 12:14:38;;;;;;;3.00;1.60;;;;;;;;;;5034652;28;20045;-92
2022/06/29 12:17:29;;;;;;;4.07;1.60;;;;;;;;;;5056412;28;20039;-91
2022/06/29 12:19:57;;;;;;;2.70;1.40;;;;;;;;;;5062182;28;20055;-92
2022/06/29 12:22:41;;;;;;;2.85;1.50;;;;;;;;;;5039411;28;20037;-92
2022/06/29 12:25:09;;;;;;;2.67;1.38;;;;;;;;;;5029340;28;20049;-92
2022/06/29 12:27:37;;;;;;;3.13;1.40;;;;;;;;;;5045810;28;20041;-91
2022/06/29 12:30:06;;;;;;;4.95;1.58;;;;;;;;;;5039179;28;20040;-92
2022/06/29 12:32:33;;;;;;;3.78;1.33;;;;;;;;;;5043274;28;20061;-91
2022/06/29 12:35:02;;;;;;;3.28;1.27;;;;;;;;;;5056704;28;20047;-92
2022/06/29 12:37:29;;;;;;;7.15;1.40;;;;;;;;;;5040864;28;20452;-91
2022/06/29 12:39:57;;;;;;;5.13;1.20;;;;;;;;;;5064237;28;20037;-92
2022/06/29 12:42:30;;;;;;;3.10;1.30;;;;;;;;;;5060134;28;20123;-92
2022/06/29 12:45:29;;;;;;;3.67;1.30;;;;;;;;;;5058702;28;20039;-91
2022/06/29 12:48:04;;;;;;;4.97;2.22;;;;;;;;;;5036217;28;20045;-92
2022/06/29 12:50:31;;;;;;;2.55;1.23;;;;;;;;;;5042695;28;20079;-93
2022/06/29 12:52:59;;;;;;;4.38;1.35;;;;;;;;;;5030972;28;20051;-92
2022/06/29 12:55:27;;;;;;;3.00;1.27;;;;;;;;;;5058083;28;20044;-92
2022/06/29 12:57:59;;;;;;;3.10;1.50;;;;;;;;;;5060352;28;20183;-92
2022/06/29 13:00:33;;;;;;;2.83;1.20;;;;;;;;;;5060756;28;20028;-92
2022/06/29 13:03:01;;;;;;;2.13;1.33;;;;;;;;;;5033440;28;20067;-91
2022/06/29 13:05:30;;;;;;;2.13;1.40;;;;;;;;;;5043600;28;20045;-92
2022/06/29 13:07:57;;;;;;;3.75;1.60;;;;;;;;;;5041709;28;20056;-93
2022/06/29 13:10:31;;;;;;;3.75;1.80;;;;;;;;;;5057116;28;20134;-93
2022/06/29 13:13:04;;;;;;;2.95;1.67;;;;;;;;;;5033130;28;20080;-92
2022/06/29 13:15:36;;;;;;;3.10;1.30;;;;;;;;;;5060864;28;20041;-93
2022/06/29 13:18:04;;;;;;;2.35;1.30;;;;;;;;;;5049367;28;20049;-93
2022/06/29 13:20:31;;;;;;;4.88;1.25;;;;;;;;;;5063943;28;20047;-93
2022/06/29 13:23:03;;;;;;;4.63;1.20;;;;;;;;;;5063276;28;20040;-92
2022/06/29 13:25:31;;;;;;;2.00;1.10;;;;;;;;;;5036467;28;20033;-92
2022/06/29 13:27:59;;;;;;;3.30;1.30;;;;;;;;;;5046540;28;20492;-91
2022/06/29 13:30:27;;;;;;;1.67;0.98;;;;;;;;;;5047619;28;20090;-92
2022/06/29 13:33:06;;;;;;;2.05;1.20;;;;;;;;;;5065197;28;20064;-92
2022/06/29 13:35:59;;;;;;;3.10;1.20;;;;;;;;;;5049226;28;20044;-93
2022/06/29 13:38:27;;;;;;;3.85;1.40;;;;;;;;;;5045526;28;20041;-92
2022/06/29 13:40:55;;;;;;;2.35;1.10;;;;;;;;;;5045269;28;20437;-93
2022/06/29 13:43:24;;;;;;;2.03;1.10;;;;;;;;;;5063167;28;20043;-96
2022/06/29 13:46:23;;;;;;;2.55;1.38;;;;;;;;;;5061506;28;20037;-96
2022/06/29 13:48:49;;;;;;;2.60;1.20;;;;;;;;;;5031411;28;20056;-93
2022/06/29 13:51:18;;;;;;;3.60;1.00;;;;;;;;;;5043082;28;20049;-96
2022/06/29 13:53:47;;;;;;;3.75;1.02;;;;;;;;;;5057173;28;20445;-95
2022/06/29 13:56:19;;;;;;;2.05;1.02;;;;;;;;;;5065212;28;20076;-96
2022/06/29 13:58:48;;;;;;;2.55;1.00;;;;;;;;;;5056012;28;20047;-96
2022/06/29 14:01:15;;;;;;;2.75;1.13;;;;;;;;;;5028242;28;20062;-95
2022/06/29 14:03:50;;;;;;;1.85;1.08;;;;;;;;;;5061152;28;20048;-96
2022/06/29 14:06:17;;;;;;;3.75;1.20;;;;;;;;;;5060772;28;20071;-94
2022/06/29 14:08:45;;;;;;;4.13;1.40;;;;;;;;;;5043480;28;20041;-94
2022/06/29 14:11:31;;;;;;;2.20;1.13;;;;;;;;;;5009283;28;20048;-94
2022/06/29 14:13:57;;;;;;;2.40;1.10;;;;;;;;;;5058578;28;20052;-96
2022/06/29 14:16:25;;;;;;;4.45;1.20;;;;;;;;;;5023841;28;20045;-95
2022/06/29 14:18:54;;;;;;;1.80;1.00;;;;;;;;;;5041813;28;20052;-96
2022/06/29 14:21:21;;;;;;;2.40;1.08;;;;;;;;;;5039502;28;20040;-95
2022/06/29 14:27:18;;;;;;;4.05;1.10;;;;;;;;;;4992514;28;20046;-82
2022/06/29 14:30:11;;;;;;;3.30;1.23;;;;;;;;;;4970347;28;20132;-82
2022/06/29 14:32:41;;;;;;;2.00;1.10;;;;;;;;;;4996980;28;20531;-82
2022/06/29 14:35:10;;;;;;;6.32;1.27;;;;;;;;;;4966448;28;20045;-82
2022/06/29 14:37:38;;;;;;;1.95;1.10;;;;;;;;;;4978038;28;22070;-82
2022/06/29 14:40:12;;;;;;;2.88;1.38;;;;;;;;;;4994937;28;20500;-82
2022/06/29 14:42:39;;;;;;;1.60;0.93;;;;;;;;;;4979472;28;20068;-82
2022/06/29 14:45:08;;;;;;;1.58;0.93;;;;;;;;;;4994537;28;20034;-82
2022/06/29 14:47:37;;;;;;;2.10;1.00;;;;;;;;;;4991067;28;20132;-84
2022/06/29 14:50:06;;;;;;;1.80;1.15;;;;;;;;;;4988843;28;20034;-83
2022/06/29 14:52:34;;;;;;;4.47;1.20;;;;;;;;;;4972301;28;20088;-83
2022/06/29 14:55:16;;;;;;;2.05;1.17;;;;;;;;;;4989153;28;20141;-83
2022/06/29 14:57:49;;;;;;;3.20;1.10;;;;;;;;;;4981910;28;20042;-83
2022/06/29 15:00:17;;;;;;;3.55;1.23;;;;;;;;;;4990589;28;20423;-82
2022/06/29 15:02:46;;;;;;;3.13;1.10;;;;;;;;;;4989749;28;20056;-83
2022/06/29 15:05:17;;;;;;;5.72;1.05;;;;;;;;;;4974009;28;20049;-83
2022/06/29 15:08:09;;;;;;;1.88;0.90;;;;;;;;;;4974866;28;20046;-83
2022/06/29 15:10:37;;;;;;;3.55;1.15;;;;;;;;;;4991683;28;20041;-83
2022/06/29 15:13:29;;;;;;;2.28;1.17;;;;;;;;;;4990284;28;20035;-83
2022/06/29 15:15:57;;;;;;;3.08;1.20;;;;;;;;;;4990438;28;20034;-84
2022/06/29 15:18:25;;;;;;;1.92;1.08;;;;;;;;;;5002920;28;20069;-83
2022/06/29 15:20:57;;;;;;;3.33;1.00;;;;;;;;;;4997571;28;20041;-83
2022/06/29 15:23:25;;;;;;;2.42;1.10;;;;;;;;;;5002919;28;20061;-83
2022/06/29 15:26:07;;;;;;;2.35;1.30;;;;;;;;;;4978525;28;20065;-83
2022/06/29 15:28:37;;;;;;;3.10;1.08;;;;;;;;;;4975223;28;20069;-83
2022/06/29 15:31:05;;;;;;;2.35;1.17;;;;;;;;;;4971107;28;20153;-83
2022/06/29 15:39:15;;;;;;;3.85;1.33;;;;;;;;;;4997859;28;20050;-84
2022/06/29 15:41:43;;;;;;;2.05;1.10;;;;;;;;;;4989577;28;20610;-84
2022/06/29 15:44:11;;;;;;;2.60;1.20;;;;;;;;;;4979562;28;20065;-84
2022/06/29 15:46:58;;;;;;;2.17;1.25;;;;;;;;;;4996550;28;20088;-84
2022/06/29 15:49:51;;;;;;;3.17;0.95;;;;;;;;;;4957084;28;20053;-86
2022/06/29 16:08:40;;;;;;;2.78;1.13;;;;;;;;;;4874233;29;20079;-86
2022/06/29 16:12:33;;;;;;;2.15;1.25;;;;;;;;;;4941663;29;20056;-85
2022/06/29 16:16:13;;;;;;;2.10;1.20;;;;;;;;;;4900293;29;20132;-85
2022/06/29 16:18:57;;;;;;;;;;;;;;;;;;4841794;29;20048;-83
2022/06/29 16:21:45;;;;;;;3.08;1.58;;;;;;;;;;4901156;29;19933;-83
2022/06/29 16:24:13;;;;;;;2.50;1.40;;;;;;;;;;4914201;28;20050;-85
2022/06/29 16:27:48;;;;;;;5.70;1.55;;;;;;;;;;4911588;29;20095;-83
2022/06/29 16:30:26;;;;;;;2.50;1.38;;;;;;;;;;4913536;29;20067;-82
2022/06/29 16:33:17;;;;;;;4.95;1.50;;;;;;;;;;4912439;29;20549;-82
2022/06/29 16:36:09;;;;;;;3.30;1.60;;;;;;;;;;4911875;29;20060;-82
2022/06/29 16:38:41;;;;;;;3.22;1.42;;;;;;;;;;4915315;29;20482;-83
2022/06/29 16:41:57;;;;;;;5.55;1.60;;;;;;;;;;4910471;29;20862;-84
2022/06/29 16:44:25;;;;;;;2.40;1.38;;;;;;;;;;4911843;29;20040;-83
2022/06/29 16:46:54;;;;;;;2.90;1.40;;;;;;;;;;4921811;29;20051;-84